createdAt,value
2022-09-15T00:01:28.312Z,1.74
2022-09-15T00:03:54.908Z,1.48
2022-09-15T00:06:21.540Z,1.64
2022-09-15T00:08:48.049Z,1.52
2022-09-15T00:11:23.162Z,1.58
2022-09-15T00:13:50.900Z,1.60
2022-09-15T00:16:18.914Z,1.64
2022-09-15T00:18:46.269Z,1.64
2022-09-15T00:21:15.226Z,1.70
2022-09-15T00:23:42.429Z,1.67
2022-09-15T00:26:11.112Z,1.82
2022-09-15T00:28:37.944Z,1.64
2022-09-15T00:31:06.646Z,1.77
2022-09-15T00:33:33.282Z,2.03
2022-09-15T00:36:01.872Z,1.70
2022-09-15T00:38:28.561Z,1.80
2022-09-15T00:40:57.457Z,1.99
2022-09-15T00:43:42.965Z,2.60
2022-09-15T00:46:10.423Z,2.56
2022-09-15T00:48:40.916Z,3.02
2022-09-15T00:51:09.935Z,3.05
2022-09-15T00:53:37.506Z,2.77
2022-09-15T00:56:06.872Z,2.52
2022-09-15T00:58:46.140Z,2.30
2022-09-15T01:01:14.522Z,2.12
2022-09-15T01:03:41.527Z,2.12
2022-09-15T01:06:28.433Z,2.01
2022-09-15T01:09:01.421Z,2.18
2022-09-15T01:11:29.142Z,1.85
2022-09-15T01:13:55.918Z,1.85
2022-09-15T01:16:31.804Z,1.93
2022-09-15T01:19:16.642Z,1.84
2022-09-15T01:22:02.900Z,2.07
2022-09-15T01:24:44.922Z,1.83
2022-09-15T01:27:38.132Z,2.00
2022-09-15T01:30:09.070Z,1.75
2022-09-15T01:33:01.090Z,1.79
2022-09-15T01:35:32.138Z,1.94
2022-09-15T01:38:04.166Z,1.64
2022-09-15T01:40:36.947Z,1.90
2022-09-15T01:43:06.665Z,1.86
2022-09-15T01:45:34.642Z,2.07
2022-09-15T01:48:02.738Z,1.86
2022-09-15T01:50:33.369Z,2.26
2022-09-15T01:53:03.247Z,1.87
2022-09-15T01:55:39.522Z,2.20
2022-09-15T01:58:07.405Z,1.93
2022-09-15T02:00:37.722Z,1.69
2022-09-15T02:03:27.285Z,1.94
2022-09-15T02:06:02.839Z,1.82
2022-09-15T02:08:45.368Z,1.94
2022-09-15T02:11:24.386Z,2.36
2022-09-15T02:13:54.321Z,1.94
2022-09-15T02:16:22.933Z,1.96
2022-09-15T02:18:49.586Z,2.14
2022-09-15T02:21:21.383Z,2.10
2022-09-15T02:23:56.115Z,2.03
2022-09-15T02:26:25.993Z,2.01
2022-09-15T02:28:55.751Z,1.96
2022-09-15T02:31:24.908Z,1.85
2022-09-15T02:33:56.750Z,1.95
2022-09-15T02:36:26.494Z,1.90
2022-09-15T02:38:58.239Z,3.31
2022-09-15T02:41:25.220Z,3.11
2022-09-15T02:43:52.349Z,2.15
2022-09-15T02:46:20.275Z,1.95
2022-09-15T02:48:47.481Z,1.74
2022-09-15T02:51:14.331Z,1.70
2022-09-15T02:53:41.178Z,1.53
2022-09-15T02:56:07.850Z,1.52
2022-09-15T02:58:34.506Z,1.36
2022-09-15T03:01:01.924Z,1.55
2022-09-15T03:03:28.597Z,1.65
2022-09-15T03:05:55.131Z,1.33
2022-09-15T03:08:21.852Z,1.59
2022-09-15T03:10:48.387Z,1.56
2022-09-15T03:13:14.924Z,1.70
2022-09-15T03:15:41.572Z,1.75
2022-09-15T03:18:08.112Z,1.67
2022-09-15T03:20:34.701Z,1.53
2022-09-15T03:23:03.366Z,1.40
2022-09-15T03:25:30.259Z,1.53
2022-09-15T03:27:56.826Z,1.46
2022-09-15T03:30:23.399Z,1.50
2022-09-15T03:32:50.073Z,1.55
2022-09-15T03:35:17.028Z,1.44
2022-09-15T03:37:43.587Z,1.62
2022-09-15T03:40:10.871Z,1.37
2022-09-15T03:42:37.441Z,1.64
2022-09-15T03:45:04.440Z,1.57
2022-09-15T03:47:31.015Z,1.55
2022-09-15T03:49:57.568Z,1.79
2022-09-15T03:52:24.086Z,1.69
2022-09-15T03:54:50.755Z,1.59
2022-09-15T03:57:17.708Z,1.47
2022-09-15T03:59:44.308Z,1.57
2022-09-15T04:02:11.223Z,1.38
2022-09-15T04:04:37.985Z,1.47
2022-09-15T04:07:04.520Z,1.67
2022-09-15T04:09:31.495Z,1.56
2022-09-15T04:11:58.057Z,1.46
2022-09-15T04:14:24.553Z,1.53
2022-09-15T04:16:51.120Z,1.70
2022-09-15T04:19:17.808Z,1.69
2022-09-15T04:21:45.806Z,1.58
2022-09-15T04:24:12.419Z,1.59
2022-09-15T04:26:39.051Z,1.86
2022-09-15T04:29:11.449Z,1.46
2022-09-15T04:31:38.181Z,1.59
2022-09-15T04:34:04.920Z,1.70
2022-09-15T04:36:31.791Z,1.56
2022-09-15T04:38:58.492Z,1.75
2022-09-15T04:41:26.056Z,1.75
2022-09-15T04:43:52.680Z,1.63
2022-09-15T04:46:19.394Z,1.88
2022-09-15T04:48:46.573Z,1.86
2022-09-15T04:51:17.920Z,2.14
2022-09-15T04:53:45.152Z,2.03
2022-09-15T04:56:13.712Z,2.00
2022-09-15T04:58:44.795Z,1.96
2022-09-15T05:01:23.554Z,2.03
2022-09-15T05:03:50.152Z,2.19
2022-09-15T05:06:18.846Z,1.77
2022-09-15T05:08:54.523Z,1.78
2022-09-15T05:11:21.978Z,2.00
2022-09-15T05:13:49.202Z,1.55
2022-09-15T05:16:20.450Z,1.63
2022-09-15T05:18:49.650Z,1.55
2022-09-15T05:21:17.571Z,1.54
2022-09-15T05:23:44.751Z,1.64
2022-09-15T05:26:13.793Z,1.77
2022-09-15T05:28:40.817Z,1.83
2022-09-15T05:31:09.316Z,1.88
2022-09-15T05:33:36.565Z,1.77
2022-09-15T05:36:04.182Z,1.98
2022-09-15T05:38:31.947Z,1.74
2022-09-15T05:41:02.672Z,1.74
2022-09-15T05:43:31.160Z,1.97
2022-09-15T05:45:57.725Z,1.79
2022-09-15T05:48:24.642Z,1.86
2022-09-15T05:50:52.814Z,2.01
2022-09-15T05:53:20.090Z,1.95
2022-09-15T05:55:47.132Z,1.82
2022-09-15T05:58:14.263Z,2.42
2022-09-15T06:00:41.736Z,2.15
2022-09-15T06:03:14.311Z,2.13
2022-09-15T06:05:41.033Z,2.36
2022-09-15T06:08:07.596Z,2.41
2022-09-15T06:10:34.205Z,2.30
2022-09-15T06:13:00.883Z,2.83
2022-09-15T06:15:27.391Z,2.33
2022-09-15T06:17:54.027Z,2.35
2022-09-15T06:20:21.317Z,2.47
2022-09-15T06:22:47.901Z,2.65
2022-09-15T06:25:14.571Z,2.56
2022-09-15T06:27:42.122Z,19.42
2022-09-15T06:30:09.513Z,40.15
2022-09-15T06:32:39.124Z,17.35
2022-09-15T06:35:08.782Z,5.96
2022-09-15T06:37:35.877Z,3.46
2022-09-15T06:40:03.807Z,12.41
2022-09-15T06:42:30.498Z,13.16
2022-09-15T06:44:58.212Z,23.67
2022-09-15T06:47:25.040Z,8.53
2022-09-15T06:49:53.280Z,4.68
2022-09-15T06:52:20.091Z,4.01
2022-09-15T06:54:46.782Z,3.69
2022-09-15T06:57:13.473Z,2.75
2022-09-15T06:59:40.060Z,2.20
2022-09-15T07:02:06.756Z,2.38
2022-09-15T07:04:34.366Z,2.04
2022-09-15T07:07:00.999Z,2.26
2022-09-15T07:09:27.587Z,2.32
2022-09-15T07:11:54.172Z,2.40
2022-09-15T07:14:20.714Z,2.39
2022-09-15T07:16:47.356Z,2.13
2022-09-15T07:19:14.094Z,2.22
2022-09-15T07:21:40.677Z,2.17
2022-09-15T07:24:07.760Z,2.13
2022-09-15T07:26:35.122Z,2.41
2022-09-15T07:29:02.999Z,2.38
2022-09-15T07:31:32.297Z,2.29
2022-09-15T07:33:59.776Z,1.92
2022-09-15T07:36:26.911Z,2.01
2022-09-15T07:38:53.560Z,1.72
2022-09-15T07:41:21.521Z,2.05
2022-09-15T07:43:49.295Z,2.23
2022-09-15T07:46:16.493Z,1.89
2022-09-15T07:48:47.557Z,1.98
2022-09-15T07:51:15.172Z,1.68
2022-09-15T07:53:42.011Z,2.00
2022-09-15T07:56:08.692Z,1.87
2022-09-15T07:58:35.290Z,1.55
2022-09-15T08:01:11.956Z,1.51
2022-09-15T08:03:42.822Z,1.49
2022-09-15T08:06:10.086Z,1.63
2022-09-15T08:08:38.775Z,1.76
2022-09-15T08:11:06.339Z,1.74
2022-09-15T08:13:32.999Z,1.88
2022-09-15T08:16:10.930Z,1.61
2022-09-15T08:18:38.426Z,1.63
2022-09-15T08:21:06.392Z,1.55
2022-09-15T08:23:33.538Z,1.61
2022-09-15T08:26:00.390Z,1.76
2022-09-15T08:28:27.541Z,2.00
2022-09-15T08:31:04.701Z,2.16
2022-09-15T08:33:31.607Z,1.99
2022-09-15T08:36:05.939Z,2.07
2022-09-15T08:38:33.053Z,2.25
2022-09-15T08:41:03.883Z,2.09
2022-09-15T08:43:36.238Z,1.95
2022-09-15T08:46:06.156Z,1.97
2022-09-15T08:49:03.049Z,1.91
2022-09-15T08:51:37.110Z,2.09
2022-09-15T08:54:09.002Z,1.93
2022-09-15T08:56:37.065Z,1.74
2022-09-15T08:59:04.303Z,2.04
2022-09-15T09:01:46.842Z,2.20
2022-09-15T09:04:25.529Z,2.03
2022-09-15T09:07:30.810Z,2.02
2022-09-15T09:10:18.652Z,1.86
2022-09-15T09:13:11.407Z,1.82
2022-09-15T09:15:41.114Z,2.04
2022-09-15T09:18:18.742Z,2.02
2022-09-15T09:20:48.425Z,1.67
2022-09-15T09:23:18.703Z,1.95
2022-09-15T09:25:45.828Z,1.94
2022-09-15T09:28:23.946Z,2.07
2022-09-15T09:30:50.540Z,1.94
2022-09-15T09:33:38.564Z,1.96
2022-09-15T09:36:05.608Z,1.83
2022-09-15T09:38:35.678Z,1.81
2022-09-15T09:41:06.107Z,1.83
2022-09-15T09:43:33.027Z,1.61
2022-09-15T09:45:59.905Z,1.57
2022-09-15T09:48:27.704Z,1.82
2022-09-15T09:50:55.264Z,1.63
2022-09-15T09:53:31.136Z,1.51
2022-09-15T09:56:17.985Z,1.65
2022-09-15T09:58:45.043Z,1.71
2022-09-15T10:01:13.539Z,1.82
2022-09-15T10:03:41.891Z,1.68
2022-09-15T10:06:13.947Z,1.74
2022-09-15T10:08:56.297Z,1.48
2022-09-15T10:11:39.574Z,2.26
2022-09-15T10:14:06.551Z,2.40
2022-09-15T10:16:33.504Z,1.52
2022-09-15T10:19:00.241Z,1.37
2022-09-15T10:21:26.767Z,1.57
2022-09-15T10:23:53.482Z,1.68
2022-09-15T10:26:20.083Z,1.67
2022-09-15T10:29:06.726Z,1.51
2022-09-15T10:31:33.327Z,1.52
2022-09-15T10:34:19.866Z,1.74
2022-09-15T10:36:46.399Z,2.46
2022-09-15T10:39:26.344Z,1.90
2022-09-15T10:41:59.764Z,1.90
2022-09-15T10:44:46.561Z,1.60
2022-09-15T10:47:27.244Z,1.54
2022-09-15T10:49:56.656Z,1.43
2022-09-15T10:52:32.481Z,1.46
2022-09-15T10:55:08.182Z,1.08
2022-09-15T10:57:34.655Z,1.98
2022-09-15T11:00:01.185Z,1.33
2022-09-15T11:02:27.709Z,1.08
2022-09-15T11:04:57.286Z,1.22
2022-09-15T11:07:27.072Z,1.04
2022-09-15T11:10:03.377Z,1.10
2022-09-15T11:12:30.173Z,1.06
2022-09-15T11:15:12.035Z,1.06
2022-09-15T11:17:54.041Z,1.14
2022-09-15T11:20:26.919Z,10.47
2022-09-15T11:23:12.856Z,6.14
2022-09-15T11:25:45.788Z,1.05
2022-09-15T11:28:19.189Z,0.87
2022-09-15T11:30:58.097Z,0.99
2022-09-15T11:33:30.502Z,1.00
2022-09-15T11:36:03.167Z,0.92
2022-09-15T11:38:35.747Z,0.77
2022-09-15T11:41:18.655Z,1.11
2022-09-15T11:43:52.154Z,1.20
2022-09-15T11:46:24.462Z,0.91
2022-09-15T11:48:57.104Z,0.84
2022-09-15T11:51:26.735Z,1.12
2022-09-15T11:53:53.221Z,1.23
2022-09-15T11:56:29.396Z,1.48
2022-09-15T11:59:04.948Z,1.19
2022-09-15T12:01:38.496Z,1.30
2022-09-15T12:04:18.395Z,1.35
2022-09-15T12:07:05.142Z,1.39
2022-09-15T12:09:32.048Z,6.30
2022-09-15T12:12:02.883Z,21.43
2022-09-15T12:14:38.884Z,1.75
2022-09-15T12:17:08.244Z,1.17
2022-09-15T12:19:44.300Z,1.35
2022-09-15T12:22:29.125Z,1.43
2022-09-15T12:25:03.540Z,1.38
2022-09-15T12:27:30.450Z,1.60
2022-09-15T12:29:59.671Z,1.58
2022-09-15T12:32:30.364Z,1.69
2022-09-15T12:34:57.044Z,1.47
2022-09-15T12:37:24.609Z,1.66
2022-09-15T12:39:52.221Z,1.57
2022-09-15T12:42:27.199Z,1.49
2022-09-15T12:44:59.851Z,1.78
2022-09-15T12:47:31.626Z,1.83
2022-09-15T12:50:01.130Z,1.78
2022-09-15T12:52:29.375Z,1.93
2022-09-15T12:55:00.728Z,1.85
2022-09-15T12:57:35.962Z,1.83
2022-09-15T13:00:20.709Z,1.85
2022-09-15T13:02:49.119Z,1.65
2022-09-15T13:05:35.650Z,1.89
2022-09-15T13:08:02.481Z,1.93
2022-09-15T13:10:34.821Z,1.83
2022-09-15T13:13:10.966Z,1.51
2022-09-15T13:15:43.559Z,1.47
2022-09-15T13:18:12.759Z,1.41
2022-09-15T13:20:43.919Z,1.45
2022-09-15T13:23:14.354Z,1.49
2022-09-15T13:25:44.885Z,1.62
2022-09-15T13:30:42.826Z,1.92
2022-09-15T13:33:09.391Z,1.53
2022-09-15T13:35:54.567Z,1.40
2022-09-15T13:38:32.150Z,1.38
2022-09-15T13:41:08.027Z,1.40
2022-09-15T13:43:52.739Z,1.35
2022-09-15T13:46:19.322Z,1.15
2022-09-15T13:48:55.403Z,1.27
2022-09-15T13:51:31.251Z,1.34
2022-09-15T13:54:05.401Z,1.35
2022-09-15T13:56:38.907Z,1.08
2022-09-15T13:59:14.073Z,1.04
2022-09-15T14:01:42.832Z,1.13
2022-09-15T14:04:16.673Z,1.11
2022-09-15T14:06:49.047Z,1.15
2022-09-15T14:09:27.212Z,1.46
2022-09-15T14:11:57.935Z,1.37
2022-09-15T14:14:27.501Z,1.34
2022-09-15T14:16:55.713Z,1.69
2022-09-15T14:19:36.481Z,1.43
2022-09-15T14:22:19.045Z,1.40
2022-09-15T14:24:45.801Z,1.59
2022-09-15T14:27:19.430Z,1.69
2022-09-15T14:29:50.183Z,1.41
2022-09-15T14:32:17.540Z,1.41
2022-09-15T14:34:44.975Z,1.39
2022-09-15T14:37:14.837Z,1.56
2022-09-15T14:39:43.394Z,1.52
2022-09-15T14:42:22.907Z,1.64
2022-09-15T14:47:43.272Z,1.70
2022-09-15T14:50:17.689Z,1.72
2022-09-15T14:52:48.462Z,1.49
2022-09-15T14:55:24.341Z,1.50
2022-09-15T14:57:57.706Z,1.38
2022-09-15T15:00:28.680Z,1.79
2022-09-15T15:03:14.882Z,1.75
2022-09-15T15:05:48.497Z,1.43
2022-09-15T15:08:47.587Z,1.76
2022-09-15T15:11:18.333Z,1.30
2022-09-15T15:13:49.583Z,1.43
2022-09-15T15:16:20.637Z,1.25
2022-09-15T15:18:47.317Z,1.37
2022-09-15T15:21:29.161Z,1.08
2022-09-15T15:23:55.886Z,1.34
2022-09-15T15:26:36.885Z,1.28
2022-09-15T15:29:07.274Z,1.41
2022-09-15T15:31:33.982Z,1.52
2022-09-15T15:34:05.564Z,1.31
2022-09-15T15:36:34.767Z,1.72
2022-09-15T15:39:04.854Z,1.10
2022-09-15T15:41:35.543Z,1.12
2022-09-15T15:44:09.802Z,1.14
2022-09-15T15:46:55.742Z,1.09
2022-09-15T15:49:27.415Z,1.27
2022-09-15T15:51:55.446Z,1.39
2022-09-15T15:54:22.870Z,1.54
2022-09-15T15:56:50.275Z,1.38
2022-09-15T15:59:17.096Z,1.31
2022-09-15T16:01:44.083Z,1.36
2022-09-15T16:04:12.144Z,1.46
2022-09-15T16:06:39.563Z,1.46
2022-09-15T16:09:06.728Z,1.38
2022-09-15T16:11:33.529Z,1.36
2022-09-15T16:14:00.069Z,1.26
2022-09-15T16:16:27.420Z,1.63
2022-09-15T16:18:54.375Z,1.42
2022-09-15T16:21:27.451Z,1.77
2022-09-15T16:23:54.195Z,1.53
2022-09-15T16:26:23.513Z,1.58
2022-09-15T16:28:52.706Z,1.59
2022-09-15T16:31:19.524Z,1.63
2022-09-15T16:33:46.411Z,1.55
2022-09-15T16:36:15.363Z,1.25
2022-09-15T16:38:43.012Z,1.40
2022-09-15T16:41:14.915Z,1.47
2022-09-15T16:43:42.052Z,1.10
2022-09-15T16:46:09.933Z,1.25
2022-09-15T16:48:36.850Z,1.57
2022-09-15T16:51:23.359Z,1.33
2022-09-15T16:53:52.068Z,1.29
2022-09-15T16:56:18.994Z,1.16
2022-09-15T16:58:45.774Z,1.54
2022-09-15T17:01:20.105Z,1.34
2022-09-15T17:03:47.409Z,1.09
2022-09-15T17:06:15.775Z,1.24
2022-09-15T17:08:42.329Z,1.35
2022-09-15T17:11:17.107Z,1.45
2022-09-15T17:13:44.583Z,1.30
2022-09-15T17:16:13.215Z,1.11
2022-09-15T17:18:39.923Z,1.25
2022-09-15T17:21:06.491Z,1.21
2022-09-15T17:23:38.232Z,1.20
2022-09-15T17:26:06.900Z,1.26
2022-09-15T17:28:36.642Z,1.48
2022-09-15T17:31:12.414Z,1.49
2022-09-15T17:33:39.133Z,1.45
2022-09-15T17:36:05.819Z,1.41
2022-09-15T17:38:32.909Z,1.47
2022-09-15T17:40:59.502Z,1.23
2022-09-15T17:43:27.850Z,1.29
2022-09-15T17:45:54.546Z,1.40
2022-09-15T17:48:22.386Z,1.33
2022-09-15T17:50:48.974Z,1.43
2022-09-15T17:53:15.460Z,1.51
2022-09-15T17:55:42.302Z,1.83
2022-09-15T17:58:09.285Z,1.92
2022-09-15T18:00:37.830Z,1.45
2022-09-15T18:03:13.536Z,1.71
2022-09-15T18:05:40.068Z,1.90
2022-09-15T18:08:06.679Z,1.90
2022-09-15T18:10:34.630Z,1.46
2022-09-15T18:13:02.200Z,1.47
2022-09-15T18:15:30.164Z,1.50
2022-09-15T18:17:58.689Z,1.77
2022-09-15T18:20:27.115Z,1.64
2022-09-15T18:22:54.793Z,1.72
2022-09-15T18:25:23.727Z,1.81
2022-09-15T18:27:51.053Z,2.07
2022-09-15T18:30:18.810Z,1.96
2022-09-15T18:32:46.462Z,1.87
2022-09-15T18:35:18.333Z,1.81
2022-09-15T18:37:46.367Z,1.91
2022-09-15T18:40:14.737Z,2.33
2022-09-15T18:42:42.048Z,2.44
2022-09-15T18:45:10.834Z,2.13
2022-09-15T18:47:37.843Z,2.63
2022-09-15T18:50:06.676Z,1.98
2022-09-15T18:52:37.405Z,1.81
2022-09-15T18:55:05.378Z,1.70
2022-09-15T18:57:39.044Z,2.09
2022-09-15T19:00:08.844Z,2.02
2022-09-15T19:02:35.539Z,2.18
2022-09-15T19:05:02.125Z,2.05
2022-09-15T19:07:28.767Z,1.40
2022-09-15T19:09:56.819Z,1.56
2022-09-15T19:12:23.566Z,1.47
2022-09-15T19:14:50.918Z,1.43
2022-09-15T19:17:17.953Z,1.45
2022-09-15T19:19:46.400Z,1.75
2022-09-15T19:22:13.171Z,1.83
2022-09-15T19:24:39.707Z,1.93
2022-09-15T19:27:08.083Z,1.86
2022-09-15T19:29:36.150Z,2.20
2022-09-15T19:32:04.840Z,2.09
2022-09-15T19:34:31.886Z,2.04
2022-09-15T19:36:58.635Z,1.98
2022-09-15T19:39:26.033Z,2.03
2022-09-15T19:41:52.542Z,2.27
2022-09-15T19:44:19.153Z,1.85
2022-09-15T19:46:45.921Z,1.95
2022-09-15T19:49:12.998Z,1.92
2022-09-15T19:51:39.513Z,2.33
2022-09-15T19:54:06.889Z,1.96
2022-09-15T19:56:34.537Z,2.04
2022-09-15T19:59:01.128Z,2.25
2022-09-15T20:01:29.406Z,2.14
2022-09-15T20:03:57.069Z,2.44
2022-09-15T20:06:25.110Z,2.18
2022-09-15T20:08:54.590Z,2.14
2022-09-15T20:11:21.169Z,1.96
2022-09-15T20:13:47.871Z,2.20
2022-09-15T20:16:17.110Z,1.94
2022-09-15T20:18:48.810Z,2.15
2022-09-15T20:21:22.166Z,2.12
2022-09-15T20:24:00.195Z,2.00
2022-09-15T20:26:27.564Z,2.19
2022-09-15T20:28:54.434Z,1.98
2022-09-15T20:31:22.698Z,1.97
2022-09-15T20:33:50.200Z,2.02
2022-09-15T20:36:19.021Z,1.91
2022-09-15T20:38:46.952Z,2.09
2022-09-15T20:41:15.399Z,2.06
2022-09-15T20:43:42.603Z,1.91
2022-09-15T20:46:11.864Z,1.97
2022-09-15T20:48:41.438Z,2.16
2022-09-15T20:51:11.399Z,2.28
2022-09-15T20:53:39.625Z,1.88
2022-09-15T20:56:06.378Z,1.88
2022-09-15T20:58:33.729Z,1.81
2022-09-15T21:01:08.519Z,2.01
2022-09-15T21:03:36.282Z,1.75
2022-09-15T21:06:05.488Z,1.54
2022-09-15T21:08:32.522Z,1.68
2022-09-15T21:10:59.625Z,1.72
2022-09-15T21:13:30.947Z,1.69
2022-09-15T21:15:59.287Z,1.81
2022-09-15T21:18:26.368Z,1.68
2022-09-15T21:21:00.458Z,1.57
2022-09-15T21:23:31.796Z,1.16
2022-09-15T21:26:06.259Z,1.38
2022-09-15T21:28:33.573Z,1.45
2022-09-15T21:31:03.984Z,1.48
2022-09-15T21:33:31.413Z,1.58
2022-09-15T21:36:04.386Z,1.50
2022-09-15T21:38:31.283Z,1.30
2022-09-15T21:40:57.896Z,1.36
2022-09-15T21:43:24.549Z,1.61
2022-09-15T21:45:54.791Z,1.51
2022-09-15T21:48:21.366Z,1.57
2022-09-15T21:50:54.389Z,1.55
2022-09-15T21:53:21.280Z,1.53
2022-09-15T21:55:51.502Z,1.63
2022-09-15T21:58:19.225Z,1.46
2022-09-15T22:00:47.356Z,1.58
2022-09-15T22:03:14.109Z,1.55
2022-09-15T22:05:46.073Z,1.43
2022-09-15T22:08:14.323Z,1.77
2022-09-15T22:10:42.090Z,1.71
2022-09-15T22:13:10.260Z,1.97
2022-09-15T22:15:37.543Z,1.68
2022-09-15T22:18:04.592Z,1.88
2022-09-15T22:20:31.346Z,1.92
2022-09-15T22:23:01.370Z,1.78
2022-09-15T22:25:27.910Z,1.68
2022-09-15T22:27:54.517Z,1.77
2022-09-15T22:30:21.154Z,1.84
2022-09-15T22:32:48.029Z,1.65
2022-09-15T22:35:14.686Z,1.86
2022-09-15T22:37:41.232Z,1.77
2022-09-15T22:40:08.213Z,1.95
2022-09-15T22:42:34.955Z,2.09
2022-09-15T22:45:01.517Z,1.97
2022-09-15T22:47:28.076Z,1.88
2022-09-15T22:49:55.146Z,1.70
2022-09-15T22:52:21.718Z,1.74
2022-09-15T22:54:48.415Z,1.82
2022-09-15T22:57:15.120Z,1.67
2022-09-15T22:59:41.752Z,1.70
2022-09-15T23:02:08.307Z,1.52
2022-09-15T23:04:34.919Z,1.60
2022-09-15T23:07:01.767Z,1.76
2022-09-15T23:09:28.369Z,1.81
2022-09-15T23:11:54.912Z,1.68
2022-09-15T23:14:21.698Z,1.69
2022-09-15T23:16:48.274Z,1.67
2022-09-15T23:19:15.022Z,1.60
2022-09-15T23:21:41.664Z,1.99
2022-09-15T23:24:08.815Z,1.91
2022-09-15T23:26:35.355Z,2.24
2022-09-15T23:29:02.193Z,2.13
2022-09-15T23:31:28.795Z,2.14
2022-09-15T23:33:55.531Z,2.12
2022-09-15T23:36:22.327Z,2.15
2022-09-15T23:38:49.322Z,1.77
2022-09-15T23:41:16.603Z,1.85
2022-09-15T23:43:43.339Z,1.55
2022-09-15T23:46:10.344Z,1.44
2022-09-15T23:48:37.246Z,1.46
2022-09-15T23:51:04.995Z,1.37
2022-09-15T23:53:31.634Z,1.52
2022-09-15T23:55:58.339Z,1.41
2022-09-15T23:58:25.008Z,1.40
